Carlton, Kansas
Current Conditions -  °F | °C
As of 8:53 PM on Tuesday 25 Nov 2014 (Local Time) from KSLN Reporting Station
Broken Clouds Broken Clouds  
Wind Chill: 38°   Ceiling: 10000
Heat Index: 45°   Visibility: 10mi
Dew Point: 27°   Wind: 15mph
Humidity: 49%   Direction: 180°S
Pressure: 29.94"   Gusts: NA
Location:  38.6868°N, 97.4052°W
Report Text: KSLN 260253Z 18013KT 10SM BKN100 07/M03 A2994 RMK AO2 SLP145 T00721028 56012
Loading
Personal Weather Stations






























Interactive Weather Map New forecast layout! Learn more

10-Day Weather Forecast

Advertisements
Track Severe Weather on mobile